createdAt,value
2022-12-22T00:01:07.914Z,91.38
2022-12-22T00:03:53.319Z,92.13
2022-12-22T00:06:39.162Z,91.38
2022-12-22T00:09:26.312Z,86.95
2022-12-22T00:12:11.893Z,84.40
2022-12-22T00:14:57.411Z,82.50
2022-12-22T00:17:44.721Z,87.82
2022-12-22T00:20:33.097Z,93.28
2022-12-22T00:23:19.063Z,94.82
2022-12-22T00:26:06.606Z,91.07
2022-12-22T00:28:54.025Z,92.07
2022-12-22T00:31:40.311Z,94.95
2022-12-22T00:34:32.795Z,99.28
2022-12-22T00:37:18.846Z,95.90
2022-12-22T00:40:04.552Z,103.28
2022-12-22T00:42:51.365Z,111.50
2022-12-22T00:45:37.914Z,112.63
2022-12-22T00:48:24.602Z,111.18
2022-12-22T00:51:10.540Z,110.82
2022-12-22T00:53:55.818Z,108.68
2022-12-22T00:56:41.760Z,115.75
2022-12-22T00:59:29.630Z,109.28
2022-12-22T01:02:15.764Z,110.05
2022-12-22T01:05:01.485Z,104.03
2022-12-22T01:07:48.511Z,107.35
2022-12-22T01:10:34.449Z,114.03
2022-12-22T01:13:20.379Z,113.22
2022-12-22T01:16:07.676Z,112.90
2022-12-22T01:18:53.390Z,111.28
2022-12-22T01:21:39.738Z,108.60
2022-12-22T01:24:30.654Z,113.65
2022-12-22T01:27:15.985Z,117.32
2022-12-22T01:30:02.294Z,116.03
2022-12-22T01:32:49.478Z,115.63
2022-12-22T01:35:38.868Z,108.97
2022-12-22T01:38:24.622Z,110.05
2022-12-22T01:41:11.696Z,112.40
2022-12-22T01:43:57.035Z,118.55
2022-12-22T01:46:45.143Z,117.65
2022-12-22T01:49:35.672Z,116.13
2022-12-22T01:52:21.834Z,116.85
2022-12-22T01:55:08.979Z,115.13
2022-12-22T01:57:55.712Z,114.35
2022-12-22T02:00:41.895Z,112.88
2022-12-22T02:03:34.927Z,118.63
2022-12-22T02:06:33.625Z,121.25
2022-12-22T02:09:36.117Z,140.77
2022-12-22T02:12:28.952Z,118.78
2022-12-22T02:15:26.122Z,125.55
2022-12-22T02:18:23.457Z,112.82
2022-12-22T02:21:13.027Z,115.65
2022-12-22T02:24:26.157Z,114.35
2022-12-22T02:27:17.052Z,120.00
2022-12-22T02:30:09.532Z,109.10
2022-12-22T02:35:42.337Z,85.80
2022-12-22T02:38:38.085Z,90.03
2022-12-22T02:41:33.480Z,92.28
2022-12-22T02:44:37.123Z,97.03
2022-12-22T02:47:29.907Z,100.75
2022-12-22T02:50:21.212Z,96.97
2022-12-22T02:53:08.172Z,95.90
2022-12-22T02:55:53.946Z,83.43
2022-12-22T02:58:39.699Z,86.40
2022-12-22T03:01:26.863Z,80.28
2022-12-22T03:04:12.610Z,81.55
2022-12-22T03:06:58.781Z,80.53
2022-12-22T03:09:44.187Z,76.20
2022-12-22T03:12:30.111Z,75.68
2022-12-22T03:15:15.548Z,76.95
2022-12-22T03:18:02.528Z,74.80
2022-12-22T03:20:47.871Z,71.20
2022-12-22T03:23:33.617Z,69.07
2022-12-22T03:26:02.254Z,65.05
2022-12-22T03:28:30.281Z,61.75
2022-12-22T03:30:59.992Z,60.67
2022-12-22T03:33:30.652Z,61.38
2022-12-22T03:35:59.423Z,60.03
2022-12-22T03:38:27.639Z,62.47
2022-12-22T03:40:55.964Z,81.63
2022-12-22T03:43:42.154Z,68.47
2022-12-22T03:46:30.364Z,60.67
2022-12-22T03:49:12.517Z,76.28
2022-12-22T03:51:43.378Z,74.47
2022-12-22T03:54:13.256Z,80.15
2022-12-22T03:56:41.484Z,80.65
2022-12-22T03:59:09.688Z,78.18
2022-12-22T04:01:43.416Z,82.07
2022-12-22T04:04:14.935Z,82.63
2022-12-22T04:06:42.952Z,83.13
2022-12-22T04:09:11.394Z,85.43
2022-12-22T04:11:57.282Z,85.60
2022-12-22T04:14:31.553Z,89.15
2022-12-22T04:17:01.757Z,85.47
2022-12-22T04:19:31.287Z,85.75
2022-12-22T04:21:59.220Z,85.75
2022-12-22T04:24:27.416Z,85.30
2022-12-22T04:26:55.265Z,86.10
2022-12-22T04:29:23.227Z,89.22
2022-12-22T04:31:51.116Z,92.80
2022-12-22T04:34:19.218Z,88.40
2022-12-22T04:36:48.204Z,88.57
2022-12-22T04:39:16.233Z,89.13
2022-12-22T04:41:44.648Z,91.50
2022-12-22T04:44:12.715Z,88.90
2022-12-22T04:46:40.495Z,92.65
2022-12-22T04:49:08.760Z,92.57
2022-12-22T04:51:36.447Z,88.68
2022-12-22T04:54:06.003Z,87.57
2022-12-22T04:56:34.227Z,81.22
2022-12-22T04:59:02.165Z,88.75
2022-12-22T05:01:30.063Z,89.50
2022-12-22T05:03:58.420Z,94.72
2022-12-22T05:06:26.117Z,87.75
2022-12-22T05:08:54.289Z,93.68
2022-12-22T05:11:23.477Z,89.47
2022-12-22T05:13:51.427Z,91.95
2022-12-22T05:16:19.491Z,89.20
2022-12-22T05:18:47.505Z,90.03
2022-12-22T05:21:17.355Z,92.50
2022-12-22T05:23:46.549Z,90.60
2022-12-22T05:26:15.661Z,90.10
2022-12-22T05:28:46.329Z,91.82
2022-12-22T05:31:16.919Z,94.57
2022-12-22T05:33:44.935Z,96.90
2022-12-22T05:36:12.778Z,103.25
2022-12-22T05:38:41.035Z,99.20
2022-12-22T05:41:08.976Z,93.70
2022-12-22T05:43:37.395Z,86.03
2022-12-22T05:46:08.876Z,97.75
2022-12-22T05:48:39.429Z,90.72
2022-12-22T05:51:09.328Z,87.80
2022-12-22T05:53:38.568Z,93.07
2022-12-22T05:56:07.975Z,99.03
2022-12-22T05:58:38.521Z,96.63
2022-12-22T06:01:08.319Z,99.28
2022-12-22T06:03:36.901Z,97.85
2022-12-22T06:06:05.684Z,111.72
2022-12-22T06:08:33.644Z,108.10
2022-12-22T06:11:01.481Z,107.05
2022-12-22T06:13:29.576Z,104.35
2022-12-22T06:15:57.370Z,101.45
2022-12-22T06:18:26.861Z,110.40
2022-12-22T06:20:55.453Z,104.43
2022-12-22T06:23:23.761Z,104.95
2022-12-22T06:25:56.402Z,99.22
2022-12-22T06:28:24.869Z,124.80
2022-12-22T06:30:52.831Z,129.65
2022-12-22T06:33:21.018Z,115.72
2022-12-22T06:35:57.423Z,115.47
2022-12-22T06:38:26.693Z,133.27
2022-12-22T06:40:54.473Z,134.48
2022-12-22T06:43:21.437Z,124.72
2022-12-22T06:45:49.154Z,128.52
2022-12-22T06:48:17.510Z,104.50
2022-12-22T06:50:45.243Z,117.75
2022-12-22T06:53:14.829Z,115.30
2022-12-22T06:55:42.723Z,147.25
2022-12-22T06:58:10.799Z,116.75
2022-12-22T07:00:38.570Z,111.32
2022-12-22T07:03:06.922Z,117.40
2022-12-22T07:05:34.863Z,104.07
2022-12-22T07:08:08.339Z,80.57
2022-12-22T07:10:55.907Z,76.68
2022-12-22T07:13:24.462Z,70.30
2022-12-22T07:16:00.190Z,76.05
2022-12-22T07:18:30.871Z,70.28
2022-12-22T07:20:58.822Z,66.82
2022-12-22T07:23:27.413Z,99.35
2022-12-22T07:25:56.779Z,95.90
2022-12-22T07:28:25.182Z,95.28
2022-12-22T07:30:54.403Z,90.40
2022-12-22T07:33:23.018Z,92.13
2022-12-22T07:36:03.750Z,94.82
2022-12-22T07:38:34.127Z,87.20
2022-12-22T07:41:05.557Z,80.30
2022-12-22T07:43:32.988Z,76.40
2022-12-22T07:46:00.755Z,72.82
2022-12-22T07:48:46.536Z,72.15
2022-12-22T07:51:14.441Z,75.53
2022-12-22T07:53:42.506Z,71.43
2022-12-22T07:56:11.789Z,76.25
2022-12-22T07:58:39.748Z,85.32
2022-12-22T08:01:07.604Z,91.63
2022-12-22T08:03:35.598Z,104.20
2022-12-22T08:06:05.342Z,78.45
2022-12-22T08:08:34.442Z,78.28
2022-12-22T08:11:02.826Z,93.85
2022-12-22T08:13:32.646Z,73.13
2022-12-22T08:16:04.988Z,77.47
2022-12-22T08:18:33.508Z,72.65
2022-12-22T08:21:01.393Z,78.35
2022-12-22T08:23:29.749Z,73.25
2022-12-22T08:26:02.226Z,69.22
2022-12-22T08:28:33.626Z,67.43
2022-12-22T08:31:02.923Z,68.32
2022-12-22T08:33:30.996Z,72.05
2022-12-22T08:36:05.837Z,68.68
2022-12-22T08:38:36.923Z,68.47
2022-12-22T08:41:05.134Z,65.15
2022-12-22T08:43:34.733Z,59.88
2022-12-22T08:46:02.701Z,61.30
2022-12-22T08:48:31.133Z,62.03
2022-12-22T08:50:59.236Z,65.40
2022-12-22T08:54:02.563Z,66.22
2022-12-22T08:56:15.234Z,67.97
2022-12-22T08:58:44.731Z,65.50
2022-12-22T09:01:17.903Z,65.70
2022-12-22T09:03:49.421Z,61.70
2022-12-22T09:06:17.213Z,58.38
2022-12-22T09:08:45.527Z,63.25
2022-12-22T09:11:13.668Z,61.05
2022-12-22T09:13:41.801Z,56.35
2022-12-22T09:16:11.203Z,54.65
2022-12-22T09:18:39.511Z,55.47
2022-12-22T09:21:07.209Z,54.90
2022-12-22T09:23:35.175Z,55.35
2022-12-22T09:26:08.203Z,54.38
2022-12-22T09:28:36.452Z,54.85
2022-12-22T09:31:05.187Z,55.03
2022-12-22T09:33:36.193Z,54.47
2022-12-22T09:36:07.175Z,55.35
2022-12-22T09:38:35.405Z,54.07
2022-12-22T09:41:08.840Z,51.20
2022-12-22T09:43:37.250Z,50.13
2022-12-22T09:46:05.186Z,51.92
2022-12-22T09:48:38.111Z,43.28
2022-12-22T09:51:06.188Z,42.35
2022-12-22T09:53:34.292Z,39.60
2022-12-22T09:56:02.086Z,40.90
2022-12-22T09:58:34.388Z,43.90
2022-12-22T10:01:12.139Z,43.28
2022-12-22T10:03:48.683Z,43.15
2022-12-22T10:06:22.065Z,39.40
2022-12-22T10:08:50.209Z,37.97
2022-12-22T10:11:19.734Z,38.72
2022-12-22T10:13:47.953Z,37.00
2022-12-22T10:16:21.640Z,39.83
2022-12-22T10:18:59.837Z,38.83
2022-12-22T10:21:30.028Z,40.42
2022-12-22T10:23:58.011Z,39.10
2022-12-22T10:26:31.442Z,38.17
2022-12-22T10:29:04.621Z,38.50
2022-12-22T10:34:14.965Z,37.05
2022-12-22T10:36:48.269Z,36.83
2022-12-22T10:39:22.808Z,40.38
2022-12-22T10:41:55.165Z,44.90
2022-12-22T10:44:27.008Z,44.25
2022-12-22T10:46:56.624Z,47.10
2022-12-22T10:49:29.115Z,55.25
2022-12-22T10:52:09.802Z,70.40
2022-12-22T10:54:38.433Z,65.35
2022-12-22T10:57:21.805Z,50.70
2022-12-22T10:59:51.475Z,48.83
2022-12-22T11:02:33.228Z,41.50
2022-12-22T11:07:35.728Z,34.33
2022-12-22T11:10:16.507Z,33.72
2022-12-22T11:13:00.209Z,33.05
2022-12-22T11:15:33.946Z,38.40
2022-12-22T11:18:10.069Z,41.13
2022-12-22T11:20:53.055Z,50.78
2022-12-22T11:23:28.365Z,59.75
2022-12-22T11:26:10.036Z,65.55
2022-12-22T11:28:55.246Z,71.57
2022-12-22T11:31:40.513Z,79.90
2022-12-22T11:34:21.382Z,80.82
2022-12-22T11:37:03.518Z,80.97
2022-12-22T11:39:41.334Z,57.97
2022-12-22T11:42:28.761Z,37.35
2022-12-22T11:45:05.070Z,10.55
2022-12-22T11:47:46.999Z,9.63
2022-12-22T11:51:02.031Z,10.95
2022-12-22T11:53:52.152Z,6.40
2022-12-22T11:56:24.481Z,5.22
2022-12-22T11:59:30.916Z,5.32
2022-12-22T12:02:24.716Z,4.65
2022-12-22T12:05:19.743Z,9.52
2022-12-22T12:07:55.341Z,6.03
2022-12-22T12:10:28.197Z,5.05
2022-12-22T12:13:05.043Z,5.68
2022-12-22T12:15:38.761Z,5.10
2022-12-22T12:18:31.048Z,5.05
2022-12-22T12:24:01.463Z,5.50
2022-12-22T12:26:34.225Z,4.88
2022-12-22T12:31:43.132Z,6.47
2022-12-22T12:34:14.114Z,5.30
2022-12-22T12:36:51.191Z,5.47
2022-12-22T12:39:25.278Z,5.50
2022-12-22T12:42:05.555Z,5.75
2022-12-22T12:44:36.477Z,5.43
2022-12-22T12:47:23.160Z,5.67
2022-12-22T12:50:23.725Z,4.50
2022-12-22T12:53:16.635Z,4.78
2022-12-22T12:55:56.334Z,3.92
2022-12-22T12:59:01.472Z,3.85
2022-12-22T13:01:58.163Z,4.57
2022-12-22T13:05:09.281Z,4.35
2022-12-22T13:08:22.776Z,5.63
2022-12-22T13:12:10.564Z,5.28
2022-12-22T13:14:53.287Z,4.18
2022-12-22T13:17:42.205Z,4.88
2022-12-22T13:20:16.431Z,4.63
2022-12-22T13:22:45.109Z,4.95
2022-12-22T13:25:16.810Z,4.20
2022-12-22T13:27:45.077Z,3.83
2022-12-22T13:30:16.474Z,4.50
2022-12-22T13:32:49.485Z,4.50
2022-12-22T13:35:43.047Z,5.88
2022-12-22T13:38:27.807Z,3.92
2022-12-22T13:40:56.202Z,4.38
2022-12-22T13:43:25.794Z,7.00
2022-12-22T13:45:55.771Z,4.10
2022-12-22T13:48:34.002Z,4.20
2022-12-22T13:51:06.600Z,4.80
2022-12-22T13:54:11.671Z,4.38
2022-12-22T13:56:35.043Z,4.53
2022-12-22T13:59:05.139Z,4.57
2022-12-22T14:01:33.249Z,4.55
2022-12-22T14:04:07.780Z,4.43
2022-12-22T14:06:38.321Z,4.72
2022-12-22T14:09:15.010Z,3.40
2022-12-22T14:11:51.064Z,3.20
2022-12-22T14:14:24.469Z,4.15
2022-12-22T14:16:55.623Z,4.25
2022-12-22T14:19:26.531Z,3.87
2022-12-22T14:22:04.604Z,4.65
2022-12-22T14:24:38.748Z,4.97
2022-12-22T14:27:13.348Z,7.43
2022-12-22T14:29:41.925Z,5.53
2022-12-22T14:32:10.694Z,6.30
2022-12-22T14:34:40.309Z,10.45
2022-12-22T14:37:11.548Z,9.43
2022-12-22T14:39:39.997Z,7.88
2022-12-22T14:42:14.960Z,7.68
2022-12-22T14:44:46.072Z,7.07
2022-12-22T14:47:17.450Z,7.10
2022-12-22T14:49:50.579Z,8.35
2022-12-22T14:52:23.368Z,5.97
2022-12-22T14:54:54.275Z,5.43
2022-12-22T14:57:30.133Z,6.75
2022-12-22T15:00:01.376Z,7.65
2022-12-22T15:02:38.725Z,6.95
2022-12-22T15:05:25.651Z,5.00
2022-12-22T15:08:06.013Z,4.53
2022-12-22T15:10:40.677Z,4.88
2022-12-22T15:13:18.081Z,6.85
2022-12-22T15:15:46.463Z,6.70
2022-12-22T15:18:16.284Z,6.35
2022-12-22T15:20:45.834Z,8.30
2022-12-22T15:23:16.809Z,8.18
2022-12-22T15:25:45.553Z,7.73
2022-12-22T15:28:13.753Z,10.52
2022-12-22T15:30:42.929Z,9.40
2022-12-22T15:33:16.212Z,9.65
2022-12-22T15:35:46.757Z,10.52
2022-12-22T15:38:16.800Z,10.27
2022-12-22T15:40:45.762Z,10.98
2022-12-22T15:43:36.808Z,8.63
2022-12-22T15:46:03.386Z,10.27
2022-12-22T15:48:34.473Z,8.77
2022-12-22T15:51:05.306Z,9.40
2022-12-22T15:53:34.730Z,7.90
2022-12-22T15:56:03.126Z,8.50
2022-12-22T15:58:34.305Z,10.15
2022-12-22T16:01:02.973Z,7.20
2022-12-22T16:03:31.059Z,6.90
2022-12-22T16:06:00.666Z,4.70
2022-12-22T16:08:32.637Z,4.30
2022-12-22T16:11:00.964Z,6.47
2022-12-22T16:13:29.646Z,5.30
2022-12-22T16:15:59.129Z,6.03
2022-12-22T16:18:27.153Z,5.80
2022-12-22T16:20:56.679Z,5.97
2022-12-22T16:23:27.646Z,5.68
2022-12-22T16:26:01.913Z,6.60
2022-12-22T16:28:30.949Z,4.47
2022-12-22T16:31:00.627Z,5.05
2022-12-22T16:33:28.904Z,7.55
2022-12-22T16:35:57.352Z,6.95
2022-12-22T16:38:25.261Z,5.88
2022-12-22T16:40:54.796Z,6.63
2022-12-22T16:46:18.453Z,6.07
2022-12-22T16:48:49.133Z,6.78
2022-12-22T16:51:20.322Z,6.28
2022-12-22T16:53:48.320Z,7.07
2022-12-22T16:56:20.124Z,5.50
2022-12-22T16:58:50.045Z,5.80
2022-12-22T17:01:23.994Z,6.18
2022-12-22T17:03:52.120Z,7.25
2022-12-22T17:06:20.654Z,12.52
2022-12-22T17:08:49.272Z,7.30
2022-12-22T17:11:22.156Z,8.02
2022-12-22T17:13:54.725Z,7.28
2022-12-22T17:16:24.221Z,8.88
2022-12-22T17:18:52.551Z,7.63
2022-12-22T17:21:22.686Z,7.15
2022-12-22T17:23:52.443Z,7.72
2022-12-22T17:26:23.615Z,8.05
2022-12-22T17:28:54.113Z,8.35
2022-12-22T17:31:24.037Z,8.75
2022-12-22T17:33:52.189Z,8.73
2022-12-22T17:36:29.978Z,7.53
2022-12-22T17:38:58.782Z,9.70
2022-12-22T17:41:27.270Z,8.00
2022-12-22T17:43:56.645Z,11.98
2022-12-22T17:46:25.078Z,10.98
2022-12-22T17:48:53.462Z,12.35
2022-12-22T17:51:24.542Z,9.90
2022-12-22T17:53:53.041Z,18.88
2022-12-22T17:56:23.203Z,12.32
2022-12-22T17:58:51.968Z,11.85
2022-12-22T18:01:23.823Z,11.57
2022-12-22T18:03:51.988Z,7.88
2022-12-22T18:06:22.933Z,7.90
2022-12-22T18:08:52.271Z,7.75
2022-12-22T18:11:20.773Z,7.90
2022-12-22T18:13:49.241Z,8.65
2022-12-22T18:16:20.310Z,7.63
2022-12-22T18:18:50.186Z,8.38
2022-12-22T18:21:21.622Z,7.82
2022-12-22T18:23:51.140Z,7.32
2022-12-22T18:26:25.678Z,7.50
2022-12-22T18:28:54.436Z,7.60
2022-12-22T18:31:24.534Z,7.43
2022-12-22T18:33:54.504Z,7.82
2022-12-22T18:36:27.838Z,8.32
2022-12-22T18:38:56.366Z,7.32
2022-12-22T18:41:26.371Z,8.73
2022-12-22T18:43:54.569Z,6.30
2022-12-22T18:46:22.843Z,6.72
2022-12-22T18:48:50.916Z,6.57
2022-12-22T18:51:23.060Z,6.75
2022-12-22T18:53:52.491Z,7.55
2022-12-22T18:56:21.244Z,7.57
2022-12-22T18:58:49.295Z,7.53
2022-12-22T19:01:20.317Z,7.93
2022-12-22T19:03:48.956Z,6.85
2022-12-22T19:06:22.208Z,5.75
2022-12-22T19:08:52.391Z,8.02
2022-12-22T19:11:25.141Z,8.02
2022-12-22T19:13:53.700Z,8.57
2022-12-22T19:16:25.824Z,7.53
2022-12-22T19:18:53.902Z,7.75
2022-12-22T19:21:22.465Z,7.28
2022-12-22T19:23:51.830Z,7.10
2022-12-22T19:26:23.272Z,8.07
2022-12-22T19:28:55.288Z,7.00
2022-12-22T19:31:26.553Z,6.28
2022-12-22T19:33:56.368Z,7.68
2022-12-22T19:36:27.355Z,6.07
2022-12-22T19:39:04.638Z,7.03
2022-12-22T19:41:41.893Z,6.10
2022-12-22T19:44:21.978Z,6.28
2022-12-22T19:46:51.342Z,6.50
2022-12-22T19:49:21.626Z,5.97
2022-12-22T19:51:50.215Z,5.68
2022-12-22T19:54:20.400Z,6.10
2022-12-22T19:56:50.813Z,6.75
2022-12-22T19:59:29.669Z,6.72
2022-12-22T20:02:01.543Z,7.68
2022-12-22T20:04:29.961Z,6.63
2022-12-22T20:06:58.163Z,5.88
2022-12-22T20:09:27.571Z,6.40
2022-12-22T20:11:55.883Z,6.55
2022-12-22T20:14:23.779Z,6.22
2022-12-22T20:16:52.151Z,6.28
2022-12-22T20:19:20.123Z,6.97
2022-12-22T20:21:48.328Z,7.00
2022-12-22T20:24:22.640Z,5.85
2022-12-22T20:26:54.831Z,7.32
2022-12-22T20:29:25.013Z,6.05
2022-12-22T20:31:53.547Z,6.00
2022-12-22T20:34:21.651Z,6.85
2022-12-22T20:36:50.800Z,6.53
2022-12-22T20:39:20.393Z,7.18
2022-12-22T20:41:53.486Z,6.82
2022-12-22T20:44:24.333Z,5.10
2022-12-22T20:46:52.738Z,7.35
2022-12-22T20:49:20.701Z,6.22
2022-12-22T20:51:49.090Z,7.75
2022-12-22T20:54:17.460Z,7.70
2022-12-22T20:56:46.173Z,7.32
2022-12-22T20:59:17.298Z,7.07
2022-12-22T21:01:47.920Z,8.20
2022-12-22T21:04:16.933Z,7.53
2022-12-22T21:06:48.178Z,7.35
2022-12-22T21:09:17.155Z,7.63
2022-12-22T21:11:45.925Z,7.70
2022-12-22T21:14:14.426Z,7.95
2022-12-22T21:16:43.348Z,6.47
2022-12-22T21:19:19.318Z,8.02
2022-12-22T21:21:47.648Z,6.65
2022-12-22T21:24:15.911Z,7.45
2022-12-22T21:26:47.117Z,6.78
2022-12-22T21:29:19.738Z,8.02
2022-12-22T21:31:48.271Z,6.55
2022-12-22T21:34:17.725Z,8.07
2022-12-22T21:36:49.466Z,8.00
2022-12-22T21:39:24.533Z,7.75
2022-12-22T21:42:01.567Z,7.20
2022-12-22T21:44:30.526Z,7.50
2022-12-22T21:46:59.255Z,7.93
2022-12-22T21:49:30.871Z,7.45
2022-12-22T21:51:59.371Z,6.28
2022-12-22T21:54:28.895Z,8.18
2022-12-22T21:56:57.032Z,5.32
2022-12-22T21:59:25.129Z,7.30
2022-12-22T22:01:53.780Z,6.45
2022-12-22T22:04:22.256Z,5.75
2022-12-22T22:06:52.260Z,6.15
2022-12-22T22:09:20.356Z,6.80
2022-12-22T22:12:06.077Z,5.93
2022-12-22T22:14:34.603Z,5.32
2022-12-22T22:17:02.941Z,6.03
2022-12-22T22:19:30.963Z,6.50
2022-12-22T22:22:00.609Z,6.78
2022-12-22T22:24:28.554Z,5.25
2022-12-22T22:26:56.833Z,5.20
2022-12-22T22:29:24.856Z,6.00
2022-12-22T22:31:53.035Z,6.45
2022-12-22T22:34:20.968Z,6.78
2022-12-22T22:36:49.630Z,5.13
2022-12-22T22:39:18.883Z,7.10
2022-12-22T22:41:47.070Z,7.20
2022-12-22T22:44:15.203Z,7.95
2022-12-22T22:46:43.478Z,6.53
2022-12-22T22:49:11.442Z,6.40
2022-12-22T22:51:39.775Z,5.15
2022-12-22T22:54:07.675Z,6.35
2022-12-22T22:56:38.724Z,7.25
2022-12-22T22:59:06.958Z,5.85
2022-12-22T23:01:35.355Z,6.13
2022-12-22T23:04:03.412Z,6.05
2022-12-22T23:06:31.768Z,5.82
2022-12-22T23:09:00.663Z,6.15
2022-12-22T23:11:28.859Z,6.60
2022-12-22T23:13:58.217Z,6.80
2022-12-22T23:16:30.798Z,6.28
2022-12-22T23:19:01.788Z,6.43
2022-12-22T23:21:30.033Z,5.82
2022-12-22T23:23:58.797Z,6.13
2022-12-22T23:26:27.378Z,6.53
2022-12-22T23:29:01.070Z,5.38
2022-12-22T23:31:33.676Z,6.38
2022-12-22T23:34:02.093Z,5.70
2022-12-22T23:36:30.608Z,4.88
2022-12-22T23:38:58.954Z,4.60
2022-12-22T23:41:27.139Z,4.10
2022-12-22T23:43:55.584Z,4.65
2022-12-22T23:46:24.383Z,4.00
2022-12-22T23:48:54.786Z,4.68
2022-12-22T23:51:25.190Z,4.00
2022-12-22T23:53:53.539Z,3.25
2022-12-22T23:56:21.816Z,3.42
2022-12-22T23:58:54.437Z,4.03
